Map

Track Data

SID SEASON NUMBER BASIN SUBBASIN NAME ISO_TIME NATURE LAT LON WMO_WIND WMO_PRES WMO_AGENCY TRACK_TYPE DIST2LAND LANDFALL IFLAG USA_AGENCY USA_ATCF_ID USA_LAT USA_LON USA_RECORD USA_STATUS USA_WIND USA_PRES USA_SSHS USA_R34_NE USA_R34_SE USA_R34_SW USA_R34_NW USA_R50_NE USA_R50_SE USA_R50_SW USA_R50_NW USA_R64_NE USA_R64_SE USA_R64_SW USA_R64_NW USA_POCI USA_ROCI USA_RMW USA_EYE TOKYO_LAT TOKYO_LON TOKYO_GRADE TOKYO_WIND TOKYO_PRES TOKYO_R50_DIR TOKYO_R50_LONG TOKYO_R50_SHORT TOKYO_R30_DIR TOKYO_R30_LONG TOKYO_R30_SHORT TOKYO_LAND CMA_LAT CMA_LON CMA_CAT CMA_WIND CMA_PRES HKO_LAT HKO_LON HKO_CAT HKO_WIND HKO_PRES NEWDELHI_LAT NEWDELHI_LON NEWDELHI_GRADE NEWDELHI_WIND NEWDELHI_PRES NEWDELHI_CI NEWDELHI_DP NEWDELHI_POCI REUNION_LAT REUNION_LON REUNION_TYPE REUNION_WIND REUNION_PRES REUNION_TNUM REUNION_CI REUNION_RMW REUNION_R34_NE REUNION_R34_SE REUNION_R34_SW REUNION_R34_NW REUNION_R50_NE REUNION_R50_SE REUNION_R50_SW REUNION_R50_NW REUNION_R64_NE REUNION_R64_SE REUNION_R64_SW REUNION_R64_NW BOM_LAT BOM_LON BOM_TYPE BOM_WIND BOM_PRES BOM_TNUM BOM_CI BOM_RMW BOM_R34_NE BOM_R34_SE BOM_R34_SW BOM_R34_NW BOM_R50_NE BOM_R50_SE BOM_R50_SW BOM_R50_NW BOM_R64_NE BOM_R64_SE BOM_R64_SW BOM_R64_NW BOM_ROCI BOM_POCI BOM_EYE BOM_POS_METHOD BOM_PRES_METHOD NADI_LAT NADI_LON NADI_CAT NADI_WIND NADI_PRES WELLINGTON_LAT WELLINGTON_LON WELLINGTON_WIND WELLINGTON_PRES DS824_LAT DS824_LON DS824_STAGE DS824_WIND DS824_PRES TD9636_LAT TD9636_LON TD9636_STAGE TD9636_WIND TD9636_PRES TD9635_LAT TD9635_LON TD9635_WIND TD9635_PRES TD9635_ROCI NEUMANN_LAT NEUMANN_LON NEUMANN_CLASS NEUMANN_WIND NEUMANN_PRES MLC_LAT MLC_LON MLC_CLASS MLC_WIND MLC_PRES USA_GUST BOM_GUST BOM_GUST_PER REUNION_GUST REUNION_GUST_PER USA_SEAHGT USA_SEARAD_NE USA_SEARAD_SE USA_SEARAD_SW USA_SEARAD_NW STORM_SPEED STORM_DIR
1982043S12073 1982 12 SI MM HEBERTE 1982-02-12 00:00:00 TS -12.0000 73.0000 28 997 reunion main 1868 1868 _____O______O_ -1 -12.0000 73.0000 2 28 997 2.50000 2.50000 -12.0000 73.0000 TC 35 997 2 16
1982043S12073 1982 12 SI MM HEBERTE 1982-02-12 03:00:00 TS -11.9150 73.0224 main 1873 1868 _____P______P_ -1 -11.9150 73.0224 2 28 997 -11.9150 73.0224 TC 35 997 0 0
1982043S12073 1982 12 SI MM HEBERTE 1982-02-12 06:00:00 TS -12.0000 73.0000 28 997 reunion main 1868 1841 _____O______O_ -1 -12.0000 73.0000 2 28 997 2.50000 2.50000 -12.0000 73.0000 TC 35 997 5 194
1982043S12073 1982 12 SI MM HEBERTE 1982-02-12 09:00:00 TS -12.3675 72.9076 main 1836 1799 _____P______P_ -1 -12.3675 72.9076 2 -12.3675 72.9076 TC 40 9 192
1982043S12073 1982 12 SI MM HEBERTE 1982-02-12 12:00:00 TS -12.9000 72.8000 reunion main 1799 1762 _____O______O_ -1 -12.9000 72.8000 99 9.90000 -12.9000 72.8000 TC 45 11 190
1982043S12073 1982 12 SI MM HEBERTE 1982-02-12 15:00:00 TS -13.4350 72.7127 main 1762 1732 _____P______P_ -1 -13.4350 72.7127 99 -13.4350 72.7127 TC 45 11 185
1982043S12073 1982 12 SI MM HEBERTE 1982-02-12 18:00:00 TS -14.0000 72.7000 reunion main 1732 1708 _____O______O_ -1 -14.0000 72.7000 99 9.90000 -14.0000 72.7000 TC 45 11 178
1982043S12073 1982 12 SI MM HEBERTE 1982-02-12 21:00:00 TS -14.5648 72.7677 main 1713 1704 _____P______P_ -1 -14.5648 72.7677 99 -14.5648 72.7677 TC 45 11 165
1982043S12073 1982 12 SI MM HEBERTE 1982-02-13 00:00:00 TS -15.1000 73.0000 reunion main 1711 1707 _____O______O_ -1 -15.1000 73.0000 99 9.90000 -15.1000 73.0000 TC 45 14 150
1982043S12073 1982 12 SI MM HEBERTE 1982-02-13 03:00:00 TS -15.7303 73.4763 main 1737 1733 _____P______P_ -1 -15.7303 73.4763 99 -15.7303 73.4763 TC 40 13 133
1982043S12073 1982 12 SI MM HEBERTE 1982-02-13 06:00:00 TS -16.0000 74.0000 28 997 reunion main 1777 1777 _____O______O_ -1 -16.0000 74.0000 2 28 997 2.50000 2.50000 -16.0000 74.0000 TC 35 997 9 72
1982043S12073 1982 12 SI MM HEBERTE 1982-02-13 09:00:00 TS -15.4474 74.3987 main 1839 1839 _____P______P_ -1 -15.4474 74.3987 2 -15.4474 74.3987 TC 40 14 24
1982043S12073 1982 12 SI MM HEBERTE 1982-02-13 12:00:00 TS -14.7000 74.6000 reunion main 1887 1887 _____O______O_ -1 -14.7000 74.6000 99 9.90000 -14.7000 74.6000 TC 45 10 6
1982043S12073 1982 12 SI MM HEBERTE 1982-02-13 15:00:00 TS -14.4250 74.5172 main 1890 1874 _____P______P_ -1 -14.4250 74.5172 99 -14.4250 74.5172 TC 42 5 324
1982043S12073 1982 12 SI MM HEBERTE 1982-02-13 18:00:00 TS -14.3000 74.3000 reunion main 1874 1869 _____O______O_ -1 -14.3000 74.3000 99 9.90000 -14.3000 74.3000 TC 40 4 311
1982043S12073 1982 12 SI MM HEBERTE 1982-02-13 21:00:00 TS -14.1424 74.1801 main 1873 1858 _____P______P_ -1 -14.1424 74.1801 99 -14.1424 74.1801 TC 35 4 316
1982043S12073 1982 12 SI MM HEBERTE 1982-02-14 00:00:00 TS -14.0000 74.0000 reunion main 1858 1824 _____O______O_ -1 -14.0000 74.0000 99 9.90000 -14.0000 74.0000 TC 30 7 294
1982043S12073 1982 12 SI MM HEBERTE 1982-02-14 03:00:00 TS -13.8802 73.5634 main 1824 1800 _____P______P_ -1 -13.8802 73.5747 99 -13.8801 73.5522 TC 27 7 294
1982043S12073 1982 12 SI MM HEBERTE 1982-02-14 06:00:00 TS -13.7000 73.3000 20 1003 reunion main 1805 1805 _____O______O_ -1 -13.7000 73.3000 2 20 1003 1.50000 1.50000 -13.7000 73.3000 TC 25 1003 5 0
1982043S12073 1982 12 SI MM HEBERTE 1982-02-14 09:00:00 TS -13.3904 73.5607 main 1849 1849 _____P______P_ -1 -13.3902 73.5006 2 -13.3905 73.6208 TC 22 11 50
1982043S12073 1982 12 SI MM HEBERTE 1982-02-14 12:00:00 TS -13.0000 74.1500 reunion main 1927 _____O______O_ -1 -13.0000 74.0000 99 9.90000 -13.0000 74.3000 TC 20 14 56

About IBTrACS Database

This database is a web-friendly format of International Best Track Archive for Climate Stewardship (IBTrACS), a global best track data archive curated by NOAA dating back to 1842.

Updated: 2021-10-19